sensor_id;sensor_type;location;lat;lon;timestamp;P1;durP1;ratioP1;P2;durP2;ratioP2
52180;SDS011;38158;53.338;6.514;2024-01-15T00:01:33;3.58;;;0.77;;
52180;SDS011;38158;53.338;6.514;2024-01-15T00:03:59;9.60;;;1.02;;
52180;SDS011;38158;53.338;6.514;2024-01-15T00:06:25;8.77;;;1.05;;
52180;SDS011;38158;53.338;6.514;2024-01-15T00:08:52;5.97;;;1.00;;
52180;SDS011;38158;53.338;6.514;2024-01-15T00:11:17;8.20;;;1.45;;
52180;SDS011;38158;53.338;6.514;2024-01-15T00:13:43;8.88;;;0.98;;
52180;SDS011;38158;53.338;6.514;2024-01-15T00:16:09;9.38;;;1.40;;
52180;SDS011;38158;53.338;6.514;2024-01-15T00:18:35;7.30;;;1.08;;
52180;SDS011;38158;53.338;6.514;2024-01-15T00:21:01;8.63;;;1.30;;
52180;SDS011;38158;53.338;6.514;2024-01-15T00:23:26;15.07;;;2.05;;
52180;SDS011;38158;53.338;6.514;2024-01-15T00:25:52;17.10;;;2.15;;
52180;SDS011;38158;53.338;6.514;2024-01-15T00:28:18;10.88;;;1.75;;
52180;SDS011;38158;53.338;6.514;2024-01-15T00:33:10;5.68;;;1.15;;
52180;SDS011;38158;53.338;6.514;2024-01-15T00:35:37;10.57;;;1.38;;
52180;SDS011;38158;53.338;6.514;2024-01-15T00:38:03;11.30;;;1.65;;
52180;SDS011;38158;53.338;6.514;2024-01-15T00:40:28;15.90;;;2.30;;
52180;SDS011;38158;53.338;6.514;2024-01-15T00:42:54;13.52;;;2.25;;
52180;SDS011;38158;53.338;6.514;2024-01-15T00:45:20;10.40;;;1.80;;
52180;SDS011;38158;53.338;6.514;2024-01-15T00:47:45;14.90;;;2.72;;
52180;SDS011;38158;53.338;6.514;2024-01-15T00:50:11;11.82;;;1.92;;
52180;SDS011;38158;53.338;6.514;2024-01-15T00:52:37;6.63;;;0.90;;
52180;SDS011;38158;53.338;6.514;2024-01-15T00:55:03;10.02;;;1.40;;
52180;SDS011;38158;53.338;6.514;2024-01-15T00:57:29;10.90;;;1.58;;
52180;SDS011;38158;53.338;6.514;2024-01-15T00:59:54;11.18;;;1.35;;
52180;SDS011;38158;53.338;6.514;2024-01-15T01:02:20;8.05;;;1.30;;
52180;SDS011;38158;53.338;6.514;2024-01-15T01:04:46;6.38;;;0.88;;
52180;SDS011;38158;53.338;6.514;2024-01-15T01:07:11;5.10;;;1.00;;
52180;SDS011;38158;53.338;6.514;2024-01-15T01:09:37;13.55;;;1.52;;
52180;SDS011;38158;53.338;6.514;2024-01-15T01:12:03;9.43;;;1.25;;
52180;SDS011;38158;53.338;6.514;2024-01-15T01:14:28;17.17;;;1.83;;
52180;SDS011;38158;53.338;6.514;2024-01-15T01:16:54;10.55;;;2.03;;
52180;SDS011;38158;53.338;6.514;2024-01-15T01:19:20;8.20;;;1.85;;
52180;SDS011;38158;53.338;6.514;2024-01-15T01:21:45;14.63;;;1.67;;
52180;SDS011;38158;53.338;6.514;2024-01-15T01:24:11;12.52;;;2.20;;
52180;SDS011;38158;53.338;6.514;2024-01-15T01:26:37;9.40;;;1.85;;
52180;SDS011;38158;53.338;6.514;2024-01-15T01:29:02;14.38;;;2.20;;
52180;SDS011;38158;53.338;6.514;2024-01-15T01:31:28;18.52;;;2.13;;
52180;SDS011;38158;53.338;6.514;2024-01-15T01:33:53;11.98;;;2.05;;
52180;SDS011;38158;53.338;6.514;2024-01-15T01:36:19;16.45;;;1.92;;
52180;SDS011;38158;53.338;6.514;2024-01-15T01:38:45;15.90;;;1.88;;
52180;SDS011;38158;53.338;6.514;2024-01-15T01:41:10;12.25;;;1.90;;
52180;SDS011;38158;53.338;6.514;2024-01-15T01:43:36;18.92;;;2.80;;
52180;SDS011;38158;53.338;6.514;2024-01-15T01:46:02;13.40;;;2.63;;
52180;SDS011;38158;53.338;6.514;2024-01-15T01:48:28;17.97;;;3.20;;
52180;SDS011;38158;53.338;6.514;2024-01-15T01:50:56;15.02;;;1.50;;
52180;SDS011;38158;53.338;6.514;2024-01-15T01:53:24;19.38;;;2.55;;
52180;SDS011;38158;53.338;6.514;2024-01-15T01:55:51;9.77;;;1.58;;
52180;SDS011;38158;53.338;6.514;2024-01-15T01:58:18;13.70;;;1.77;;
52180;SDS011;38158;53.338;6.514;2024-01-15T02:00:44;9.38;;;1.40;;
52180;SDS011;38158;53.338;6.514;2024-01-15T02:03:11;11.90;;;2.47;;
52180;SDS011;38158;53.338;6.514;2024-01-15T02:05:37;11.18;;;1.23;;
52180;SDS011;38158;53.338;6.514;2024-01-15T02:08:05;8.35;;;1.30;;
52180;SDS011;38158;53.338;6.514;2024-01-15T02:10:31;14.02;;;2.60;;
52180;SDS011;38158;53.338;6.514;2024-01-15T02:12:57;15.10;;;2.30;;
52180;SDS011;38158;53.338;6.514;2024-01-15T02:15:23;14.77;;;1.55;;
52180;SDS011;38158;53.338;6.514;2024-01-15T02:17:58;11.35;;;1.88;;
52180;SDS011;38158;53.338;6.514;2024-01-15T02:20:32;12.93;;;1.83;;
52180;SDS011;38158;53.338;6.514;2024-01-15T02:23:05;19.25;;;1.85;;
52180;SDS011;38158;53.338;6.514;2024-01-15T02:25:41;6.05;;;0.75;;
52180;SDS011;38158;53.338;6.514;2024-01-15T02:28:09;4.65;;;0.80;;
52180;SDS011;38158;53.338;6.514;2024-01-15T02:30:39;3.17;;;0.55;;
52180;SDS011;38158;53.338;6.514;2024-01-15T02:33:06;3.67;;;0.45;;
52180;SDS011;38158;53.338;6.514;2024-01-15T02:35:32;7.40;;;0.93;;
52180;SDS011;38158;53.338;6.514;2024-01-15T02:37:58;9.45;;;0.95;;
52180;SDS011;38158;53.338;6.514;2024-01-15T02:40:24;9.70;;;1.80;;
52180;SDS011;38158;53.338;6.514;2024-01-15T02:42:50;9.88;;;1.48;;
52180;SDS011;38158;53.338;6.514;2024-01-15T02:45:15;2.70;;;0.50;;
52180;SDS011;38158;53.338;6.514;2024-01-15T02:47:41;7.75;;;0.95;;
52180;SDS011;38158;53.338;6.514;2024-01-15T02:50:07;3.92;;;0.75;;
52180;SDS011;38158;53.338;6.514;2024-01-15T02:52:33;4.00;;;0.38;;
52180;SDS011;38158;53.338;6.514;2024-01-15T02:54:58;9.93;;;1.23;;
52180;SDS011;38158;53.338;6.514;2024-01-15T02:57:24;4.38;;;0.60;;
52180;SDS011;38158;53.338;6.514;2024-01-15T02:59:50;13.05;;;1.25;;
52180;SDS011;38158;53.338;6.514;2024-01-15T03:02:16;11.20;;;1.13;;
52180;SDS011;38158;53.338;6.514;2024-01-15T03:04:44;10.00;;;1.35;;
52180;SDS011;38158;53.338;6.514;2024-01-15T03:07:10;15.00;;;1.65;;
52180;SDS011;38158;53.338;6.514;2024-01-15T03:09:36;17.00;;;1.88;;
52180;SDS011;38158;53.338;6.514;2024-01-15T03:12:02;7.35;;;1.10;;
52180;SDS011;38158;53.338;6.514;2024-01-15T03:14:28;12.05;;;1.77;;
52180;SDS011;38158;53.338;6.514;2024-01-15T03:16:54;9.95;;;1.60;;
52180;SDS011;38158;53.338;6.514;2024-01-15T03:19:19;11.88;;;1.83;;
52180;SDS011;38158;53.338;6.514;2024-01-15T03:21:45;11.68;;;1.50;;
52180;SDS011;38158;53.338;6.514;2024-01-15T03:24:11;12.57;;;1.95;;
52180;SDS011;38158;53.338;6.514;2024-01-15T03:26:36;10.20;;;1.70;;
52180;SDS011;38158;53.338;6.514;2024-01-15T03:29:02;10.77;;;2.10;;
52180;SDS011;38158;53.338;6.514;2024-01-15T03:31:28;12.00;;;1.98;;
52180;SDS011;38158;53.338;6.514;2024-01-15T03:33:53;21.98;;;3.05;;
52180;SDS011;38158;53.338;6.514;2024-01-15T03:36:19;16.35;;;2.60;;
52180;SDS011;38158;53.338;6.514;2024-01-15T03:38:45;15.52;;;1.80;;
52180;SDS011;38158;53.338;6.514;2024-01-15T03:41:10;9.43;;;1.38;;
52180;SDS011;38158;53.338;6.514;2024-01-15T03:43:36;8.70;;;1.25;;
52180;SDS011;38158;53.338;6.514;2024-01-15T03:46:01;12.82;;;1.85;;
52180;SDS011;38158;53.338;6.514;2024-01-15T03:48:27;12.30;;;2.00;;
52180;SDS011;38158;53.338;6.514;2024-01-15T03:50:53;11.05;;;1.35;;
52180;SDS011;38158;53.338;6.514;2024-01-15T03:53:19;10.48;;;1.45;;
52180;SDS011;38158;53.338;6.514;2024-01-15T03:55:44;9.43;;;1.73;;
52180;SDS011;38158;53.338;6.514;2024-01-15T03:58:10;11.05;;;2.03;;
52180;SDS011;38158;53.338;6.514;2024-01-15T04:00:36;12.90;;;1.88;;
52180;SDS011;38158;53.338;6.514;2024-01-15T04:03:02;8.00;;;1.48;;
52180;SDS011;38158;53.338;6.514;2024-01-15T04:05:27;8.57;;;1.70;;
52180;SDS011;38158;53.338;6.514;2024-01-15T04:07:53;10.27;;;1.42;;
52180;SDS011;38158;53.338;6.514;2024-01-15T04:10:19;10.68;;;1.30;;
52180;SDS011;38158;53.338;6.514;2024-01-15T04:12:44;10.82;;;1.23;;
52180;SDS011;38158;53.338;6.514;2024-01-15T04:15:13;12.13;;;1.42;;
52180;SDS011;38158;53.338;6.514;2024-01-15T04:17:40;10.07;;;1.88;;
52180;SDS011;38158;53.338;6.514;2024-01-15T04:20:05;11.75;;;1.42;;
52180;SDS011;38158;53.338;6.514;2024-01-15T04:22:32;12.23;;;2.33;;
52180;SDS011;38158;53.338;6.514;2024-01-15T04:24:59;20.17;;;2.60;;
52180;SDS011;38158;53.338;6.514;2024-01-15T04:27:24;12.35;;;2.13;;
52180;SDS011;38158;53.338;6.514;2024-01-15T04:29:50;13.00;;;2.15;;
52180;SDS011;38158;53.338;6.514;2024-01-15T04:32:16;10.25;;;1.30;;
52180;SDS011;38158;53.338;6.514;2024-01-15T04:34:41;16.85;;;2.00;;
52180;SDS011;38158;53.338;6.514;2024-01-15T04:37:07;11.38;;;1.90;;
52180;SDS011;38158;53.338;6.514;2024-01-15T04:39:32;11.35;;;1.98;;
52180;SDS011;38158;53.338;6.514;2024-01-15T04:41:58;9.75;;;1.55;;
52180;SDS011;38158;53.338;6.514;2024-01-15T04:44:24;14.75;;;2.10;;
52180;SDS011;38158;53.338;6.514;2024-01-15T04:46:49;13.48;;;1.85;;
52180;SDS011;38158;53.338;6.514;2024-01-15T04:49:15;10.32;;;2.08;;
52180;SDS011;38158;53.338;6.514;2024-01-15T04:51:40;12.63;;;2.38;;
52180;SDS011;38158;53.338;6.514;2024-01-15T04:54:06;16.83;;;2.40;;
52180;SDS011;38158;53.338;6.514;2024-01-15T04:56:32;12.15;;;1.73;;
52180;SDS011;38158;53.338;6.514;2024-01-15T04:58:57;11.15;;;1.52;;
52180;SDS011;38158;53.338;6.514;2024-01-15T05:01:23;14.13;;;1.77;;
52180;SDS011;38158;53.338;6.514;2024-01-15T05:03:48;12.52;;;1.85;;
52180;SDS011;38158;53.338;6.514;2024-01-15T05:06:14;13.38;;;1.75;;
52180;SDS011;38158;53.338;6.514;2024-01-15T05:08:40;9.18;;;3.67;;
52180;SDS011;38158;53.338;6.514;2024-01-15T05:11:06;11.00;;;1.30;;
52180;SDS011;38158;53.338;6.514;2024-01-15T05:13:32;9.63;;;1.40;;
52180;SDS011;38158;53.338;6.514;2024-01-15T05:15:57;10.68;;;1.52;;
52180;SDS011;38158;53.338;6.514;2024-01-15T05:18:23;13.98;;;1.70;;
52180;SDS011;38158;53.338;6.514;2024-01-15T05:20:49;13.25;;;1.40;;
52180;SDS011;38158;53.338;6.514;2024-01-15T05:23:14;9.15;;;1.52;;
52180;SDS011;38158;53.338;6.514;2024-01-15T05:25:40;14.15;;;1.80;;
52180;SDS011;38158;53.338;6.514;2024-01-15T05:28:06;10.63;;;1.45;;
52180;SDS011;38158;53.338;6.514;2024-01-15T05:30:31;11.93;;;2.10;;
52180;SDS011;38158;53.338;6.514;2024-01-15T05:32:57;13.75;;;1.95;;
52180;SDS011;38158;53.338;6.514;2024-01-15T05:35:25;16.80;;;2.50;;
52180;SDS011;38158;53.338;6.514;2024-01-15T05:37:50;13.30;;;1.77;;
52180;SDS011;38158;53.338;6.514;2024-01-15T05:40:17;15.82;;;2.17;;
52180;SDS011;38158;53.338;6.514;2024-01-15T05:42:43;15.60;;;2.85;;
52180;SDS011;38158;53.338;6.514;2024-01-15T05:45:08;25.33;;;3.03;;
52180;SDS011;38158;53.338;6.514;2024-01-15T05:47:34;12.55;;;2.25;;
52180;SDS011;38158;53.338;6.514;2024-01-15T05:50:00;12.52;;;1.80;;
52180;SDS011;38158;53.338;6.514;2024-01-15T05:52:27;8.95;;;2.08;;
52180;SDS011;38158;53.338;6.514;2024-01-15T05:54:53;14.90;;;1.65;;
52180;SDS011;38158;53.338;6.514;2024-01-15T05:57:18;11.48;;;2.10;;
52180;SDS011;38158;53.338;6.514;2024-01-15T05:59:44;10.27;;;1.95;;
52180;SDS011;38158;53.338;6.514;2024-01-15T06:02:10;11.75;;;1.77;;
52180;SDS011;38158;53.338;6.514;2024-01-15T06:04:36;12.95;;;1.90;;
52180;SDS011;38158;53.338;6.514;2024-01-15T06:07:02;12.90;;;2.55;;
52180;SDS011;38158;53.338;6.514;2024-01-15T06:09:27;18.70;;;1.83;;
52180;SDS011;38158;53.338;6.514;2024-01-15T06:11:53;15.70;;;1.73;;
52180;SDS011;38158;53.338;6.514;2024-01-15T06:14:19;16.63;;;2.10;;
52180;SDS011;38158;53.338;6.514;2024-01-15T06:16:45;13.05;;;1.92;;
52180;SDS011;38158;53.338;6.514;2024-01-15T06:19:11;14.85;;;1.70;;
52180;SDS011;38158;53.338;6.514;2024-01-15T06:21:36;9.07;;;1.38;;
52180;SDS011;38158;53.338;6.514;2024-01-15T06:24:02;15.10;;;2.20;;
52180;SDS011;38158;53.338;6.514;2024-01-15T06:26:28;10.73;;;1.52;;
52180;SDS011;38158;53.338;6.514;2024-01-15T06:28:53;12.82;;;1.38;;
52180;SDS011;38158;53.338;6.514;2024-01-15T06:31:19;13.10;;;2.20;;
52180;SDS011;38158;53.338;6.514;2024-01-15T06:33:45;15.80;;;1.58;;
52180;SDS011;38158;53.338;6.514;2024-01-15T06:36:13;14.73;;;1.70;;
52180;SDS011;38158;53.338;6.514;2024-01-15T06:38:39;7.97;;;1.35;;
52180;SDS011;38158;53.338;6.514;2024-01-15T06:41:05;10.93;;;1.23;;
52180;SDS011;38158;53.338;6.514;2024-01-15T06:43:30;9.30;;;1.23;;
52180;SDS011;38158;53.338;6.514;2024-01-15T06:45:56;11.10;;;1.73;;
52180;SDS011;38158;53.338;6.514;2024-01-15T06:48:22;9.60;;;1.33;;
52180;SDS011;38158;53.338;6.514;2024-01-15T06:50:47;14.30;;;1.73;;
52180;SDS011;38158;53.338;6.514;2024-01-15T06:53:13;9.40;;;1.58;;
52180;SDS011;38158;53.338;6.514;2024-01-15T06:55:39;7.65;;;1.40;;
52180;SDS011;38158;53.338;6.514;2024-01-15T06:58:04;7.47;;;1.50;;
52180;SDS011;38158;53.338;6.514;2024-01-15T07:00:30;9.13;;;1.15;;
52180;SDS011;38158;53.338;6.514;2024-01-15T07:02:56;11.68;;;2.30;;
52180;SDS011;38158;53.338;6.514;2024-01-15T07:05:23;9.38;;;1.35;;
52180;SDS011;38158;53.338;6.514;2024-01-15T07:07:49;9.77;;;0.95;;
52180;SDS011;38158;53.338;6.514;2024-01-15T07:10:15;6.60;;;1.20;;
52180;SDS011;38158;53.338;6.514;2024-01-15T07:12:44;9.93;;;1.13;;
52180;SDS011;38158;53.338;6.514;2024-01-15T07:15:10;7.68;;;0.70;;
52180;SDS011;38158;53.338;6.514;2024-01-15T07:17:35;5.43;;;0.70;;
52180;SDS011;38158;53.338;6.514;2024-01-15T07:20:04;9.35;;;1.13;;
52180;SDS011;38158;53.338;6.514;2024-01-15T07:22:32;2.85;;;0.50;;
52180;SDS011;38158;53.338;6.514;2024-01-15T07:24:58;5.45;;;0.60;;
52180;SDS011;38158;53.338;6.514;2024-01-15T07:27:24;9.18;;;0.98;;
52180;SDS011;38158;53.338;6.514;2024-01-15T07:29:50;6.43;;;0.77;;
52180;SDS011;38158;53.338;6.514;2024-01-15T07:32:15;5.20;;;1.23;;
52180;SDS011;38158;53.338;6.514;2024-01-15T07:34:41;8.40;;;0.88;;
52180;SDS011;38158;53.338;6.514;2024-01-15T07:37:07;5.35;;;0.75;;
52180;SDS011;38158;53.338;6.514;2024-01-15T07:39:33;8.63;;;0.65;;
52180;SDS011;38158;53.338;6.514;2024-01-15T07:41:59;4.15;;;0.65;;
52180;SDS011;38158;53.338;6.514;2024-01-15T07:44:26;6.40;;;1.08;;
52180;SDS011;38158;53.338;6.514;2024-01-15T07:46:51;9.68;;;1.95;;
52180;SDS011;38158;53.338;6.514;2024-01-15T07:49:17;4.22;;;0.75;;
52180;SDS011;38158;53.338;6.514;2024-01-15T07:51:42;10.20;;;1.45;;
52180;SDS011;38158;53.338;6.514;2024-01-15T07:54:11;6.22;;;1.10;;
52180;SDS011;38158;53.338;6.514;2024-01-15T07:59:41;6.15;;;1.00;;
52180;SDS011;38158;53.338;6.514;2024-01-15T08:02:06;10.63;;;1.45;;
52180;SDS011;38158;53.338;6.514;2024-01-15T08:04:32;6.82;;;1.10;;
52180;SDS011;38158;53.338;6.514;2024-01-15T08:06:58;6.38;;;0.90;;
52180;SDS011;38158;53.338;6.514;2024-01-15T08:09:23;9.48;;;1.45;;
52180;SDS011;38158;53.338;6.514;2024-01-15T08:11:49;9.90;;;1.50;;
52180;SDS011;38158;53.338;6.514;2024-01-15T08:14:15;11.57;;;1.40;;
52180;SDS011;38158;53.338;6.514;2024-01-15T08:16:40;7.63;;;0.80;;
52180;SDS011;38158;53.338;6.514;2024-01-15T08:19:06;10.18;;;1.83;;
52180;SDS011;38158;53.338;6.514;2024-01-15T08:21:32;10.32;;;1.55;;
52180;SDS011;38158;53.338;6.514;2024-01-15T08:24:01;9.77;;;1.50;;
52180;SDS011;38158;53.338;6.514;2024-01-15T08:26:28;8.13;;;1.40;;
52180;SDS011;38158;53.338;6.514;2024-01-15T08:28:54;10.80;;;1.83;;
52180;SDS011;38158;53.338;6.514;2024-01-15T08:31:19;12.23;;;1.55;;
52180;SDS011;38158;53.338;6.514;2024-01-15T08:33:45;9.55;;;1.35;;
52180;SDS011;38158;53.338;6.514;2024-01-15T08:36:11;8.93;;;1.30;;
52180;SDS011;38158;53.338;6.514;2024-01-15T08:38:40;9.50;;;1.60;;
52180;SDS011;38158;53.338;6.514;2024-01-15T08:41:05;6.63;;;1.60;;
52180;SDS011;38158;53.338;6.514;2024-01-15T08:43:33;9.77;;;1.50;;
52180;SDS011;38158;53.338;6.514;2024-01-15T08:45:59;8.80;;;1.48;;
52180;SDS011;38158;53.338;6.514;2024-01-15T08:48:25;4.13;;;0.68;;
52180;SDS011;38158;53.338;6.514;2024-01-15T08:50:52;6.93;;;0.80;;
52180;SDS011;38158;53.338;6.514;2024-01-15T08:53:19;4.80;;;0.60;;
52180;SDS011;38158;53.338;6.514;2024-01-15T08:55:45;3.63;;;0.50;;
52180;SDS011;38158;53.338;6.514;2024-01-15T08:58:11;4.57;;;0.75;;
52180;SDS011;38158;53.338;6.514;2024-01-15T09:00:36;5.15;;;0.82;;
52180;SDS011;38158;53.338;6.514;2024-01-15T09:03:02;9.10;;;0.90;;
52180;SDS011;38158;53.338;6.514;2024-01-15T09:05:28;10.52;;;1.15;;
52180;SDS011;38158;53.338;6.514;2024-01-15T09:07:54;14.65;;;3.03;;
52180;SDS011;38158;53.338;6.514;2024-01-15T09:10:19;13.88;;;1.58;;
52180;SDS011;38158;53.338;6.514;2024-01-15T09:15:14;12.18;;;1.73;;
52180;SDS011;38158;53.338;6.514;2024-01-15T09:17:39;11.30;;;1.52;;
52180;SDS011;38158;53.338;6.514;2024-01-15T09:20:05;10.00;;;1.40;;
52180;SDS011;38158;53.338;6.514;2024-01-15T09:22:32;11.48;;;1.60;;
52180;SDS011;38158;53.338;6.514;2024-01-15T09:24:58;8.57;;;1.35;;
52180;SDS011;38158;53.338;6.514;2024-01-15T09:27:24;11.07;;;1.75;;
52180;SDS011;38158;53.338;6.514;2024-01-15T09:29:53;12.25;;;1.42;;
52180;SDS011;38158;53.338;6.514;2024-01-15T09:32:18;6.93;;;1.33;;
52180;SDS011;38158;53.338;6.514;2024-01-15T09:34:45;12.10;;;2.05;;
52180;SDS011;38158;53.338;6.514;2024-01-15T09:37:13;7.10;;;1.30;;
52180;SDS011;38158;53.338;6.514;2024-01-15T09:39:39;8.10;;;1.08;;
52180;SDS011;38158;53.338;6.514;2024-01-15T09:42:05;7.13;;;0.77;;
52180;SDS011;38158;53.338;6.514;2024-01-15T09:44:32;19.88;;;1.60;;
52180;SDS011;38158;53.338;6.514;2024-01-15T09:46:58;4.07;;;0.73;;
52180;SDS011;38158;53.338;6.514;2024-01-15T09:49:24;10.75;;;2.08;;
52180;SDS011;38158;53.338;6.514;2024-01-15T09:51:53;13.55;;;1.42;;
52180;SDS011;38158;53.338;6.514;2024-01-15T09:54:21;9.63;;;1.20;;
52180;SDS011;38158;53.338;6.514;2024-01-15T09:56:46;3.92;;;0.50;;
52180;SDS011;38158;53.338;6.514;2024-01-15T09:59:16;9.90;;;1.25;;
52180;SDS011;38158;53.338;6.514;2024-01-15T10:01:43;2.33;;;0.75;;
52180;SDS011;38158;53.338;6.514;2024-01-15T10:04:10;2.47;;;0.40;;
52180;SDS011;38158;53.338;6.514;2024-01-15T10:06:37;3.08;;;0.63;;
52180;SDS011;38158;53.338;6.514;2024-01-15T10:09:04;9.48;;;1.25;;
52180;SDS011;38158;53.338;6.514;2024-01-15T10:11:32;6.97;;;1.02;;
52180;SDS011;38158;53.338;6.514;2024-01-15T10:13:58;4.13;;;0.57;;
52180;SDS011;38158;53.338;6.514;2024-01-15T10:16:24;4.60;;;0.60;;
52180;SDS011;38158;53.338;6.514;2024-01-15T10:18:51;5.20;;;0.55;;
52180;SDS011;38158;53.338;6.514;2024-01-15T10:21:16;5.13;;;0.50;;
52180;SDS011;38158;53.338;6.514;2024-01-15T10:23:42;7.53;;;0.73;;
52180;SDS011;38158;53.338;6.514;2024-01-15T10:26:08;5.57;;;0.77;;
52180;SDS011;38158;53.338;6.514;2024-01-15T10:28:34;3.22;;;0.82;;
52180;SDS011;38158;53.338;6.514;2024-01-15T10:30:59;4.53;;;0.55;;
52180;SDS011;38158;53.338;6.514;2024-01-15T10:33:25;6.18;;;1.08;;
52180;SDS011;38158;53.338;6.514;2024-01-15T10:35:58;6.30;;;0.75;;
52180;SDS011;38158;53.338;6.514;2024-01-15T10:38:25;3.92;;;0.50;;
52180;SDS011;38158;53.338;6.514;2024-01-15T10:40:54;9.33;;;0.70;;
52180;SDS011;38158;53.338;6.514;2024-01-15T10:43:21;7.05;;;0.70;;
52180;SDS011;38158;53.338;6.514;2024-01-15T10:45:48;5.80;;;1.00;;
52180;SDS011;38158;53.338;6.514;2024-01-15T10:48:16;8.07;;;0.63;;
52180;SDS011;38158;53.338;6.514;2024-01-15T10:50:43;1.80;;;0.40;;
52180;SDS011;38158;53.338;6.514;2024-01-15T10:53:09;4.78;;;0.43;;
52180;SDS011;38158;53.338;6.514;2024-01-15T10:55:37;2.20;;;0.32;;
52180;SDS011;38158;53.338;6.514;2024-01-15T10:58:05;2.10;;;0.30;;
52180;SDS011;38158;53.338;6.514;2024-01-15T11:00:33;4.65;;;0.40;;
52180;SDS011;38158;53.338;6.514;2024-01-15T11:03:00;7.20;;;0.50;;
52180;SDS011;38158;53.338;6.514;2024-01-15T11:05:27;6.93;;;0.75;;
52180;SDS011;38158;53.338;6.514;2024-01-15T11:07:56;4.90;;;0.52;;
52180;SDS011;38158;53.338;6.514;2024-01-15T11:10:38;4.38;;;0.30;;
52180;SDS011;38158;53.338;6.514;2024-01-15T11:13:08;4.32;;;0.30;;
52180;SDS011;38158;53.338;6.514;2024-01-15T11:15:54;1.38;;;0.47;;
52180;SDS011;38158;53.338;6.514;2024-01-15T11:18:27;2.65;;;0.40;;
52180;SDS011;38158;53.338;6.514;2024-01-15T11:28:58;4.18;;;0.40;;
52180;SDS011;38158;53.338;6.514;2024-01-15T11:31:26;5.95;;;0.50;;
52180;SDS011;38158;53.338;6.514;2024-01-15T11:34:12;2.10;;;0.38;;
52180;SDS011;38158;53.338;6.514;2024-01-15T11:42:00;4.05;;;0.82;;
52180;SDS011;38158;53.338;6.514;2024-01-15T11:44:28;1.48;;;0.28;;
52180;SDS011;38158;53.338;6.514;2024-01-15T11:46:58;0.47;;;0.20;;
52180;SDS011;38158;53.338;6.514;2024-01-15T11:50:10;1.85;;;0.25;;
52180;SDS011;38158;53.338;6.514;2024-01-15T11:52:17;6.10;;;0.47;;
52180;SDS011;38158;53.338;6.514;2024-01-15T11:54:49;4.78;;;0.40;;
52180;SDS011;38158;53.338;6.514;2024-01-15T11:57:32;3.70;;;0.43;;
52180;SDS011;38158;53.338;6.514;2024-01-15T12:00:05;3.90;;;0.47;;
52180;SDS011;38158;53.338;6.514;2024-01-15T12:02:32;4.68;;;0.52;;
52180;SDS011;38158;53.338;6.514;2024-01-15T12:04:58;3.07;;;0.57;;
52180;SDS011;38158;53.338;6.514;2024-01-15T12:07:23;10.43;;;0.70;;
52180;SDS011;38158;53.338;6.514;2024-01-15T12:09:49;6.15;;;0.70;;
52180;SDS011;38158;53.338;6.514;2024-01-15T12:12:17;11.05;;;1.10;;
52180;SDS011;38158;53.338;6.514;2024-01-15T12:17:18;7.03;;;0.63;;
52180;SDS011;38158;53.338;6.514;2024-01-15T12:19:44;9.55;;;1.23;;
52180;SDS011;38158;53.338;6.514;2024-01-15T12:22:09;8.15;;;0.75;;
52180;SDS011;38158;53.338;6.514;2024-01-15T12:24:35;10.55;;;1.17;;
52180;SDS011;38158;53.338;6.514;2024-01-15T12:27:01;6.80;;;0.95;;
52180;SDS011;38158;53.338;6.514;2024-01-15T12:29:27;9.30;;;0.90;;
52180;SDS011;38158;53.338;6.514;2024-01-15T12:31:53;3.85;;;0.45;;
52180;SDS011;38158;53.338;6.514;2024-01-15T12:34:19;9.48;;;1.00;;
52180;SDS011;38158;53.338;6.514;2024-01-15T12:36:48;6.63;;;1.13;;
52180;SDS011;38158;53.338;6.514;2024-01-15T12:39:13;9.65;;;1.10;;
52180;SDS011;38158;53.338;6.514;2024-01-15T12:41:40;9.48;;;1.25;;
52180;SDS011;38158;53.338;6.514;2024-01-15T12:44:06;10.63;;;1.58;;
52180;SDS011;38158;53.338;6.514;2024-01-15T12:46:32;5.53;;;0.90;;
52180;SDS011;38158;53.338;6.514;2024-01-15T12:48:58;6.82;;;0.80;;
52180;SDS011;38158;53.338;6.514;2024-01-15T12:51:26;11.90;;;0.95;;
52180;SDS011;38158;53.338;6.514;2024-01-15T12:53:52;11.40;;;1.27;;
52180;SDS011;38158;53.338;6.514;2024-01-15T12:56:18;13.85;;;1.75;;
52180;SDS011;38158;53.338;6.514;2024-01-15T12:58:44;6.30;;;1.08;;
52180;SDS011;38158;53.338;6.514;2024-01-15T13:01:09;10.10;;;1.00;;
52180;SDS011;38158;53.338;6.514;2024-01-15T13:03:35;8.15;;;1.35;;
52180;SDS011;38158;53.338;6.514;2024-01-15T13:06:01;11.98;;;1.35;;
52180;SDS011;38158;53.338;6.514;2024-01-15T13:08:26;14.32;;;1.63;;
52180;SDS011;38158;53.338;6.514;2024-01-15T13:10:54;8.38;;;1.23;;
52180;SDS011;38158;53.338;6.514;2024-01-15T13:13:22;6.35;;;0.82;;
52180;SDS011;38158;53.338;6.514;2024-01-15T13:15:47;8.95;;;1.23;;
52180;SDS011;38158;53.338;6.514;2024-01-15T13:18:13;6.97;;;1.55;;
52180;SDS011;38158;53.338;6.514;2024-01-15T13:20:39;5.65;;;0.75;;
52180;SDS011;38158;53.338;6.514;2024-01-15T13:23:04;9.80;;;0.85;;
52180;SDS011;38158;53.338;6.514;2024-01-15T13:25:30;5.30;;;0.77;;
52180;SDS011;38158;53.338;6.514;2024-01-15T13:27:57;4.15;;;0.40;;
52180;SDS011;38158;53.338;6.514;2024-01-15T13:30:23;5.47;;;0.80;;
52180;SDS011;38158;53.338;6.514;2024-01-15T13:32:48;14.15;;;1.35;;
52180;SDS011;38158;53.338;6.514;2024-01-15T13:35:14;4.65;;;1.25;;
52180;SDS011;38158;53.338;6.514;2024-01-15T13:37:39;6.30;;;1.02;;
52180;SDS011;38158;53.338;6.514;2024-01-15T13:40:08;5.88;;;1.10;;
52180;SDS011;38158;53.338;6.514;2024-01-15T13:42:35;8.00;;;1.40;;
52180;SDS011;38158;53.338;6.514;2024-01-15T13:45:04;9.57;;;1.30;;
52180;SDS011;38158;53.338;6.514;2024-01-15T13:49:56;7.18;;;0.82;;
52180;SDS011;38158;53.338;6.514;2024-01-15T13:52:23;9.02;;;1.23;;
52180;SDS011;38158;53.338;6.514;2024-01-15T13:54:48;6.40;;;1.47;;
52180;SDS011;38158;53.338;6.514;2024-01-15T13:57:14;9.00;;;1.23;;
52180;SDS011;38158;53.338;6.514;2024-01-15T13:59:40;12.43;;;1.52;;
52180;SDS011;38158;53.338;6.514;2024-01-15T14:02:06;8.40;;;1.17;;
52180;SDS011;38158;53.338;6.514;2024-01-15T14:04:31;5.47;;;0.70;;
52180;SDS011;38158;53.338;6.514;2024-01-15T14:06:58;10.48;;;1.30;;
52180;SDS011;38158;53.338;6.514;2024-01-15T14:09:24;6.45;;;1.10;;
52180;SDS011;38158;53.338;6.514;2024-01-15T14:11:50;5.13;;;0.80;;
52180;SDS011;38158;53.338;6.514;2024-01-15T14:14:16;6.17;;;0.60;;
52180;SDS011;38158;53.338;6.514;2024-01-15T14:16:42;4.03;;;0.50;;
52180;SDS011;38158;53.338;6.514;2024-01-15T14:19:10;7.65;;;0.60;;
52180;SDS011;38158;53.338;6.514;2024-01-15T14:21:35;5.80;;;0.68;;
52180;SDS011;38158;53.338;6.514;2024-01-15T14:24:01;7.10;;;0.90;;
52180;SDS011;38158;53.338;6.514;2024-01-15T14:26:27;4.10;;;0.63;;
52180;SDS011;38158;53.338;6.514;2024-01-15T14:28:53;5.07;;;0.55;;
52180;SDS011;38158;53.338;6.514;2024-01-15T14:31:19;5.50;;;1.02;;
52180;SDS011;38158;53.338;6.514;2024-01-15T14:33:45;6.57;;;0.90;;
52180;SDS011;38158;53.338;6.514;2024-01-15T14:36:11;4.95;;;1.10;;
52180;SDS011;38158;53.338;6.514;2024-01-15T14:38:38;6.70;;;2.10;;
52180;SDS011;38158;53.338;6.514;2024-01-15T14:41:04;6.93;;;1.42;;
52180;SDS011;38158;53.338;6.514;2024-01-15T14:43:29;6.90;;;0.90;;
52180;SDS011;38158;53.338;6.514;2024-01-15T14:45:55;5.35;;;0.63;;
52180;SDS011;38158;53.338;6.514;2024-01-15T14:48:21;9.65;;;0.90;;
52180;SDS011;38158;53.338;6.514;2024-01-15T14:50:47;10.77;;;1.30;;
52180;SDS011;38158;53.338;6.514;2024-01-15T14:53:13;11.38;;;1.42;;
52180;SDS011;38158;53.338;6.514;2024-01-15T14:55:38;6.95;;;1.02;;
52180;SDS011;38158;53.338;6.514;2024-01-15T14:58:04;7.35;;;1.10;;
52180;SDS011;38158;53.338;6.514;2024-01-15T15:00:30;8.75;;;1.42;;
52180;SDS011;38158;53.338;6.514;2024-01-15T15:02:55;6.15;;;0.73;;
52180;SDS011;38158;53.338;6.514;2024-01-15T15:05:21;5.97;;;1.13;;